createdAt,value
2023-03-26T00:04:14.574Z,9.90
2023-03-26T00:09:16.636Z,9.70
2023-03-26T00:14:18.334Z,9.60
2023-03-26T00:19:20.543Z,9.70
2023-03-26T00:24:29.459Z,9.70
2023-03-26T00:29:33.339Z,9.70
2023-03-26T00:34:35.171Z,9.70
2023-03-26T00:39:37.297Z,9.60
2023-03-26T00:44:38.827Z,9.60
2023-03-26T00:49:40.362Z,9.50
2023-03-26T00:54:42.716Z,9.50
2023-03-26T00:59:44.328Z,9.50
2023-03-26T01:04:47.483Z,9.30
2023-03-26T01:09:51.229Z,9.40
2023-03-26T01:14:54.648Z,9.40
2023-03-26T01:20:08.225Z,9.20
2023-03-26T01:25:09.965Z,9.10
2023-03-26T01:30:24.541Z,9.10
2023-03-26T01:35:33.434Z,8.90
2023-03-26T01:40:42.882Z,8.80
2023-03-26T01:45:46.239Z,8.80
2023-03-26T01:50:48.926Z,8.70
2023-03-26T01:55:50.567Z,8.60
2023-03-26T02:00:56.945Z,8.50
2023-03-26T02:06:15.759Z,8.40
2023-03-26T02:11:17.421Z,8.40
2023-03-26T02:16:19.848Z,8.40
2023-03-26T02:21:22.459Z,8.40
2023-03-26T02:26:24.452Z,8.40
2023-03-26T02:31:30.381Z,8.50
2023-03-26T02:36:32.372Z,8.40
2023-03-26T02:41:34.443Z,8.50
2023-03-26T02:46:36.122Z,8.50
2023-03-26T02:51:37.711Z,8.60
2023-03-26T02:56:39.365Z,8.70
2023-03-26T03:01:46.532Z,8.80
2023-03-26T03:06:52.857Z,8.80
2023-03-26T03:11:54.480Z,8.90
2023-03-26T03:16:57.259Z,8.90
2023-03-26T03:21:58.941Z,9.00
2023-03-26T03:27:00.596Z,9.00
2023-03-26T03:32:02.283Z,9.10
2023-03-26T03:37:04.560Z,9.10
2023-03-26T03:42:06.200Z,9.10
2023-03-26T03:47:10.446Z,9.10
2023-03-26T03:52:12.080Z,9.00
2023-03-26T03:57:15.959Z,9.00
2023-03-26T04:02:26.661Z,9.00
2023-03-26T04:07:32.454Z,8.90
2023-03-26T04:12:34.126Z,8.90
2023-03-26T04:17:42.357Z,8.80
2023-03-26T04:22:44.112Z,8.80
2023-03-26T04:27:46.224Z,8.70
2023-03-26T04:32:48.939Z,8.80
2023-03-26T04:37:50.729Z,8.70
2023-03-26T04:42:54.597Z,8.60
2023-03-26T04:47:58.292Z,8.60
2023-03-26T04:52:59.949Z,8.50
2023-03-26T04:58:05.430Z,8.50
2023-03-26T05:03:09.995Z,8.50
2023-03-26T05:08:11.606Z,8.40
2023-03-26T05:13:13.269Z,8.40
2023-03-26T05:18:15.307Z,8.30
2023-03-26T05:23:17.115Z,8.30
2023-03-26T05:28:20.711Z,8.40
2023-03-26T05:33:22.749Z,8.30
2023-03-26T05:38:24.560Z,8.30
2023-03-26T05:43:26.512Z,8.30
2023-03-26T05:48:28.342Z,8.30
2023-03-26T05:53:30.495Z,8.20
2023-03-26T05:58:32.989Z,8.20
2023-03-26T06:03:36.471Z,8.30
2023-03-26T06:08:39.338Z,8.30
2023-03-26T06:13:41.389Z,8.20
2023-03-26T06:18:43.108Z,8.20
2023-03-26T06:23:44.769Z,8.20
2023-03-26T06:28:46.551Z,8.20
2023-03-26T06:33:48.889Z,8.10
2023-03-26T06:38:50.571Z,8.20
2023-03-26T06:43:52.804Z,8.10
2023-03-26T06:48:54.428Z,8.00
2023-03-26T06:53:55.995Z,8.00
2023-03-26T06:58:57.603Z,8.00
2023-03-26T07:03:59.990Z,8.00
2023-03-26T07:09:01.994Z,7.90
2023-03-26T07:14:03.710Z,8.00
2023-03-26T07:19:05.376Z,8.00
2023-03-26T07:24:10.518Z,7.90
2023-03-26T07:29:22.714Z,8.00
2023-03-26T07:34:36.728Z,7.90
2023-03-26T07:39:46.448Z,7.90
2023-03-26T07:44:58.576Z,7.90
2023-03-26T07:50:00.348Z,7.90
2023-03-26T07:55:02.192Z,8.00
2023-03-26T08:00:24.135Z,8.00
2023-03-26T08:05:27.350Z,8.00
2023-03-26T08:10:29.006Z,8.00
2023-03-26T08:15:39.094Z,8.00
2023-03-26T08:20:45.599Z,8.00
2023-03-26T08:25:53.406Z,8.00
2023-03-26T08:30:55.422Z,8.00
2023-03-26T08:35:57.718Z,8.00
2023-03-26T08:41:02.067Z,7.90
2023-03-26T08:46:22.701Z,7.80
2023-03-26T08:51:33.562Z,7.80
2023-03-26T08:56:38.180Z,7.80
2023-03-26T09:01:51.553Z,7.70
2023-03-26T09:06:53.093Z,7.70
2023-03-26T09:12:13.459Z,7.70
2023-03-26T09:17:24.242Z,7.80
2023-03-26T09:22:45.074Z,7.80
2023-03-26T09:27:49.686Z,7.90
2023-03-26T09:33:09.741Z,7.90
2023-03-26T09:38:26.312Z,7.90
2023-03-26T09:43:31.077Z,8.10
2023-03-26T09:49:05.147Z,8.30
2023-03-26T09:54:17.594Z,8.30
2023-03-26T09:59:21.938Z,8.40
2023-03-26T10:04:50.417Z,8.70
2023-03-26T10:09:55.396Z,9.00
2023-03-26T10:14:56.942Z,9.00
2023-03-26T10:20:05.858Z,8.90
2023-03-26T10:25:19.745Z,8.80
2023-03-26T10:30:33.703Z,8.80
2023-03-26T10:35:53.295Z,8.60
2023-03-26T10:40:59.840Z,8.60
2023-03-26T10:46:01.447Z,8.60
2023-03-26T10:51:15.591Z,8.60
2023-03-26T10:56:21.776Z,8.70
2023-03-26T11:01:46.865Z,8.70
2023-03-26T11:06:48.480Z,8.70
2023-03-26T11:12:25.529Z,8.80
2023-03-26T11:17:44.615Z,8.80
2023-03-26T11:23:05.626Z,8.90
2023-03-26T11:28:26.950Z,8.80
2023-03-26T11:33:45.524Z,8.80
2023-03-26T11:38:50.073Z,8.90
2023-03-26T11:43:55.231Z,8.80
2023-03-26T11:49:01.393Z,8.80
2023-03-26T11:54:04.746Z,8.80
2023-03-26T11:59:11.468Z,8.70
2023-03-26T12:04:14.702Z,8.70
2023-03-26T12:09:17.314Z,8.70
2023-03-26T12:14:21.038Z,8.30
2023-03-26T12:19:24.542Z,8.40
2023-03-26T12:24:32.349Z,8.30
2023-03-26T12:29:34.646Z,8.40
2023-03-26T12:34:37.507Z,8.50
2023-03-26T12:40:09.672Z,8.40
2023-03-26T12:45:06.758Z,8.50
2023-03-26T12:50:12.424Z,8.60
2023-03-26T12:55:32.678Z,8.60
2023-03-26T13:00:34.906Z,8.70
2023-03-26T13:05:55.515Z,8.70
2023-03-26T13:11:07.225Z,8.70
2023-03-26T13:16:14.795Z,8.90
2023-03-26T13:21:19.741Z,9.00
2023-03-26T13:26:22.159Z,9.10
2023-03-26T13:31:26.944Z,9.30
2023-03-26T13:36:31.686Z,9.40
2023-03-26T13:41:57.350Z,9.40
2023-03-26T13:47:01.087Z,9.50
2023-03-26T13:52:05.734Z,9.50
2023-03-26T13:57:07.634Z,9.40
2023-03-26T14:02:11.925Z,9.50
2023-03-26T14:07:18.041Z,9.50
2023-03-26T14:12:38.531Z,9.40
2023-03-26T14:18:00.418Z,9.40
2023-03-26T14:23:07.930Z,9.40
2023-03-26T14:28:10.477Z,9.30
2023-03-26T14:33:34.096Z,9.10
2023-03-26T14:38:48.048Z,9.00
2023-03-26T14:44:05.011Z,9.00
2023-03-26T14:49:24.702Z,9.00
2023-03-26T14:54:27.294Z,8.90
2023-03-26T14:59:51.234Z,9.00
2023-03-26T15:05:02.133Z,9.10
2023-03-26T15:10:05.384Z,9.20
2023-03-26T15:15:27.040Z,9.30
2023-03-26T15:20:31.752Z,9.40
2023-03-26T15:25:36.374Z,9.40
2023-03-26T15:30:57.865Z,9.40
2023-03-26T15:36:11.593Z,9.40
2023-03-26T15:41:22.260Z,9.40
2023-03-26T15:46:49.638Z,9.40
2023-03-26T15:52:12.477Z,9.30
2023-03-26T15:57:16.562Z,9.30
2023-03-26T16:02:37.984Z,9.30
2023-03-26T16:07:42.418Z,9.20
2023-03-26T16:13:02.762Z,9.10
2023-03-26T16:18:11.880Z,9.00
2023-03-26T16:23:28.609Z,8.90
2023-03-26T16:28:32.401Z,8.70
2023-03-26T16:33:38.861Z,8.70
2023-03-26T16:38:50.103Z,8.60
2023-03-26T16:43:59.507Z,8.60
2023-03-26T16:49:15.291Z,8.60
2023-03-26T16:54:19.860Z,8.60
2023-03-26T16:59:37.300Z,8.50
2023-03-26T17:04:39.989Z,8.40
2023-03-26T17:09:42.712Z,8.40
2023-03-26T17:14:58.749Z,8.30
2023-03-26T17:20:00.724Z,8.40
2023-03-26T17:25:10.685Z,8.30
2023-03-26T17:30:21.494Z,8.20
2023-03-26T17:35:35.437Z,8.10
2023-03-26T17:40:43.305Z,8.00
2023-03-26T17:45:47.072Z,8.00
2023-03-26T17:51:20.763Z,8.00
2023-03-26T17:56:24.510Z,8.00
2023-03-26T18:01:36.574Z,8.00
2023-03-26T18:06:56.634Z,8.00
2023-03-26T18:11:58.218Z,8.00
2023-03-26T18:17:00.313Z,8.00
2023-03-26T18:22:06.001Z,7.90
2023-03-26T18:27:18.917Z,7.80
2023-03-26T18:32:22.721Z,7.80
2023-03-26T18:37:34.619Z,7.70
2023-03-26T18:42:38.111Z,7.60
2023-03-26T18:47:40.427Z,7.60
2023-03-26T18:52:42.817Z,7.50
2023-03-26T18:57:44.387Z,7.50
2023-03-26T19:02:48.008Z,7.60
2023-03-26T19:07:49.774Z,7.60
2023-03-26T19:12:56.540Z,7.50
2023-03-26T19:18:03.741Z,7.50
2023-03-26T19:23:05.548Z,7.40
2023-03-26T19:28:13.105Z,7.40
2023-03-26T19:33:16.503Z,7.40
2023-03-26T19:38:25.966Z,7.40
2023-03-26T19:43:27.666Z,7.30
2023-03-26T19:48:45.507Z,7.40
2023-03-26T19:53:51.431Z,7.20
2023-03-26T19:58:54.274Z,7.20
2023-03-26T20:04:04.079Z,7.10
2023-03-26T20:09:05.621Z,7.10
2023-03-26T20:14:11.883Z,7.20
2023-03-26T20:19:14.300Z,7.10
2023-03-26T20:24:17.222Z,6.80
2023-03-26T20:29:19.840Z,6.80
2023-03-26T20:34:23.765Z,6.70
2023-03-26T20:39:25.430Z,6.70
2023-03-26T20:44:27.228Z,6.60
2023-03-26T20:49:29.355Z,6.50
2023-03-26T20:54:31.200Z,6.60
2023-03-26T20:59:32.898Z,6.50
2023-03-26T21:04:34.977Z,6.50
2023-03-26T21:09:36.833Z,6.50
2023-03-26T21:14:43.937Z,6.50
2023-03-26T21:19:45.981Z,6.50
2023-03-26T21:25:06.491Z,6.40
2023-03-26T21:30:14.244Z,6.40
2023-03-26T21:35:16.270Z,6.40
2023-03-26T21:40:18.891Z,6.30
2023-03-26T21:45:21.181Z,6.30
2023-03-26T21:50:23.606Z,6.40
2023-03-26T21:55:25.820Z,6.30
2023-03-26T22:00:37.192Z,6.30
2023-03-26T22:05:51.865Z,6.30
2023-03-26T22:10:53.449Z,6.20
2023-03-26T22:15:56.778Z,6.20
2023-03-26T22:20:59.806Z,6.20
2023-03-26T22:26:01.778Z,6.10
2023-03-26T22:31:08.646Z,6.10
2023-03-26T22:36:22.497Z,6.00
2023-03-26T22:41:25.549Z,5.90
2023-03-26T22:46:27.569Z,5.80
2023-03-26T22:51:29.911Z,5.80
2023-03-26T22:56:31.780Z,5.80
2023-03-26T23:01:34.658Z,5.70
2023-03-26T23:06:36.219Z,5.60
2023-03-26T23:11:37.787Z,5.50
2023-03-26T23:16:39.482Z,5.40
2023-03-26T23:21:41.322Z,5.40
2023-03-26T23:26:50.444Z,5.30
2023-03-26T23:31:54.454Z,5.30
2023-03-26T23:36:57.948Z,5.20
2023-03-26T23:41:59.544Z,5.00
2023-03-26T23:47:01.136Z,4.80
2023-03-26T23:52:04.344Z,4.70
2023-03-26T23:57:05.972Z,4.60
